Time;durP1;ratioP1;P1;durP2;ratioP2;P2;SDS_P1;SDS_P2;PMS_P1;PMS_P2;Temp;Humidity;BMP_temperature;BMP_pressure;BME280_temperature;BME280_humidity;BME280_pressure;Samples;Min_cycle;Max_cycle;Signal;HPM_P1;HPM_P2
2023/12/09 00:01:07;;;;;;;98.40;33.60;;;;;;;0.48;85.10;100750.20;110741;1214;97679;-68
2023/12/09 00:03:32;;;;;;;89.50;30.70;;;;;;;0.48;85.10;100749.51;110763;1212;140892;-67
2023/12/09 00:05:58;;;;;;;96.10;34.00;;;;;;;0.49;85.13;100748.98;110733;1213;97654;-67
2023/12/09 00:08:23;;;;;;;98.20;33.80;;;;;;;0.51;85.20;100747.04;110937;1213;97772;-67
2023/12/09 00:10:49;;;;;;;92.70;32.20;;;;;;;0.51;85.27;100751.27;110722;1214;138977;-67
2023/12/09 00:13:16;;;;;;;96.60;33.70;;;;;;;0.53;85.09;100751.44;110759;1212;97743;-67
2023/12/09 00:15:43;;;;;;;94.90;33.20;;;;;;;0.54;85.19;100749.86;110730;1213;139205;-67
2023/12/09 00:18:08;;;;;;;93.10;33.00;;;;;;;0.55;85.24;100745.98;110890;1212;99161;-67
2023/12/09 00:20:34;;;;;;;92.90;33.40;;;;;;;0.56;85.29;100744.58;110837;1213;97611;-67
2023/12/09 00:22:59;;;;;;;94.30;34.60;;;;;;;0.55;85.20;100744.23;110636;1223;151721;-68
2023/12/09 00:25:25;;;;;;;94.90;34.70;;;;;;;0.55;85.19;100741.41;110857;1213;97707;-67
2023/12/09 00:27:50;;;;;;;86.20;32.20;;;;;;;0.53;85.10;100736.14;110650;1213;140704;-67
2023/12/09 00:30:15;;;;;;;91.50;33.30;;;;;;;0.52;85.12;100730.16;110738;1211;98012;-67
2023/12/09 00:32:41;;;;;;;95.90;32.20;;;;;;;0.53;85.14;100737.19;110837;1207;97712;-68
2023/12/09 00:35:08;;;;;;;92.80;34.10;;;;;;;0.54;85.15;100733.67;110604;1210;138431;-68
2023/12/09 00:37:33;;;;;;;94.20;32.90;;;;;;;0.53;85.12;100727.88;110949;1213;97686;-67
2023/12/09 00:39:58;;;;;;;92.00;31.40;;;;;;;0.54;85.20;100720.49;110633;1209;138763;-68
2023/12/09 00:42:24;;;;;;;89.30;33.30;;;;;;;0.54;85.15;100718.02;110797;1212;100700;-68
2023/12/09 00:44:49;;;;;;;91.00;33.50;;;;;;;0.53;85.01;100723.13;110829;1210;97725;-67
2023/12/09 00:47:15;;;;;;;91.40;32.20;;;;;;;0.52;85.07;100722.07;110597;1214;139194;-67
2023/12/09 00:49:40;;;;;;;90.40;32.80;;;;;;;0.51;85.03;100719.96;110720;1214;97727;-67
2023/12/09 00:52:05;;;;;;;95.80;34.20;;;;;;;0.50;85.23;100722.96;110738;1207;138841;-67
2023/12/09 00:54:31;;;;;;;101.90;34.70;;;;;;;0.50;85.20;100723.30;110800;1213;97894;-68
2023/12/09 00:56:56;;;;;;;106.70;34.50;;;;;;;0.51;85.09;100720.48;110808;1208;97618;-67
2023/12/09 00:59:21;;;;;;;101.90;34.40;;;;;;;0.51;85.17;100719.61;110608;1226;139967;-67
2023/12/09 01:01:47;;;;;;;104.50;34.20;;;;;;;0.53;85.10;100719.61;110715;1208;97675;-67
2023/12/09 01:04:13;;;;;;;97.70;34.80;;;;;;;0.53;85.16;100720.32;110705;1212;138721;-67
2023/12/09 01:06:38;;;;;;;93.30;32.40;;;;;;;0.54;85.12;100725.59;110821;1212;97686;-67
2023/12/09 01:09:03;;;;;;;98.50;36.40;;;;;;;0.56;85.27;100719.09;110653;1208;140022;-68
2023/12/09 01:11:29;;;;;;;94.20;34.00;;;;;;;0.57;85.24;100714.86;110787;1225;111380;-67
2023/12/09 01:13:54;;;;;;;97.60;34.50;;;;;;;0.58;85.19;100715.91;110829;1212;97805;-68
2023/12/09 01:16:19;;;;;;;98.90;34.90;;;;;;;0.57;85.17;100718.73;110690;1214;139104;-67
2023/12/09 01:18:45;;;;;;;93.50;33.30;;;;;;;0.59;85.30;100727.16;110744;1213;97780;-68
2023/12/09 01:21:10;;;;;;;96.00;34.10;;;;;;;0.60;85.10;100729.27;110750;1209;140181;-67
2023/12/09 01:23:35;;;;;;;104.10;32.70;;;;;;;0.61;85.25;100726.98;110766;1226;97580;-67
2023/12/09 01:26:00;;;;;;;103.50;35.10;;;;;;;0.60;85.12;100721.36;110763;1212;97658;-67
2023/12/09 01:28:26;;;;;;;102.50;33.90;;;;;;;0.61;85.30;100710.98;110779;1213;138847;-68
2023/12/09 01:30:51;;;;;;;92.80;33.20;;;;;;;0.60;85.16;100712.92;110800;1212;97717;-67
2023/12/09 01:33:17;;;;;;;86.90;31.80;;;;;;;0.57;85.18;100703.61;110615;1212;138697;-67
2023/12/09 01:35:42;;;;;;;95.90;34.80;;;;;;;0.61;85.20;100702.89;110781;1212;98109;-67
2023/12/09 01:38:08;;;;;;;93.90;33.70;;;;;;;0.62;85.28;100695.86;110769;1213;97786;-67
2023/12/09 01:40:33;;;;;;;100.90;34.20;;;;;;;0.61;85.16;100700.42;110699;1213;138635;-67
2023/12/09 01:42:58;;;;;;;101.90;34.80;;;;;;;0.61;85.22;100703.08;110723;1212;97607;-67
2023/12/09 01:45:24;;;;;;;99.20;35.30;;;;;;;0.61;85.17;100704.13;110738;1219;138909;-67
2023/12/09 01:47:49;;;;;;;106.50;35.20;;;;;;;0.59;85.15;100703.44;110822;1212;97673;-67
2023/12/09 01:50:15;;;;;;;93.30;33.60;;;;;;;0.60;85.17;100705.02;110724;1213;97732;-67
2023/12/09 01:52:42;;;;;;;96.60;34.50;;;;;;;0.61;85.12;100703.25;110771;1213;138646;-67
2023/12/09 01:55:12;;;;;;;102.00;35.50;;;;;;;0.61;85.14;100697.62;110832;1213;111639;-67
2023/12/09 01:57:37;;;;;;;93.80;31.80;;;;;;;0.61;85.22;100696.04;110643;1211;139330;-67
2023/12/09 02:00:04;;;;;;;102.60;34.50;;;;;;;0.64;85.23;100698.84;110777;1212;97694;-67
2023/12/09 02:02:30;;;;;;;100.60;34.40;;;;;;;0.63;85.14;100702.89;110856;1209;97618;-67
2023/12/09 02:04:56;;;;;;;98.40;33.50;;;;;;;0.60;85.12;100706.77;110841;1212;138814;-67
2023/12/09 02:07:21;;;;;;;97.00;34.60;;;;;;;0.60;85.19;100704.66;110665;1217;98904;-67
2023/12/09 02:09:47;;;;;;;98.90;33.50;;;;;;;0.61;85.21;100703.42;110683;1212;139192;-67
2023/12/09 02:12:35;;;;;;;98.50;34.30;;;;;;;0.63;85.21;100704.13;110752;1214;97576;-67
2023/12/09 02:15:10;;;;;;;88.50;32.90;;;;;;;0.61;85.15;100707.98;110746;1212;111242;-67
2023/12/09 02:17:43;;;;;;;108.00;33.70;;;;;;;0.60;85.06;100703.42;110799;1212;100466;-67
2023/12/09 02:20:13;;;;;;;96.40;33.60;;;;;;;0.61;85.08;100697.27;110730;1226;107280;-67
2023/12/09 02:22:38;;;;;;;91.20;31.70;;;;;;;0.62;85.12;100696.04;110712;1212;138956;-67
2023/12/09 02:25:04;;;;;;;92.30;33.30;;;;;;;0.62;85.18;100695.67;110705;1221;96885;-67
2023/12/09 02:27:54;;;;;;;93.00;32.70;;;;;;;0.63;85.18;100686.36;110762;1212;138666;-67
2023/12/09 02:30:21;;;;;;;98.50;33.00;;;;;;;0.64;85.22;100683.19;110756;1221;107902;-67
2023/12/09 02:32:48;;;;;;;104.10;34.00;;;;;;;0.65;85.29;100683.89;110715;1213;97661;-67
2023/12/09 02:35:16;;;;;;;102.80;37.00;;;;;;;0.67;85.14;100683.54;110730;1212;140402;-67
2023/12/09 02:37:44;;;;;;;92.90;31.70;;;;;;;0.66;85.18;100688.11;110795;1212;111035;-67
2023/12/09 02:40:10;;;;;;;95.90;33.70;;;;;;;0.67;85.26;100686.00;110645;1210;138488;-67
2023/12/09 02:42:38;;;;;;;97.90;35.20;;;;;;;0.65;85.18;100681.79;110999;1212;97600;-67
2023/12/09 02:45:06;;;;;;;99.40;33.60;;;;;;;0.66;85.17;100679.67;110947;1212;97760;-67
2023/12/09 02:47:31;;;;;;;91.90;33.00;;;;;;;0.70;85.27;100683.88;110912;1208;139138;-67
2023/12/09 02:49:56;;;;;;;94.70;32.60;;;;;;;0.70;85.19;100683.00;110762;1212;98066;-66
2023/12/09 02:52:21;;;;;;;91.70;34.00;;;;;;;0.69;85.21;100680.02;110738;1212;138896;-67
2023/12/09 02:54:47;;;;;;;91.40;32.00;;;;;;;0.70;85.17;100681.42;110736;1212;97590;-67
2023/12/09 02:57:12;;;;;;;95.60;34.00;;;;;;;0.66;85.06;100680.38;110721;1212;139072;-67
2023/12/09 02:59:39;;;;;;;100.60;34.90;;;;;;;0.65;85.16;100678.80;110786;1212;97758;-67
2023/12/09 03:02:05;;;;;;;102.90;33.70;;;;;;;0.64;85.20;100680.20;110846;1212;99044;-67
2023/12/09 03:04:31;;;;;;;94.00;33.10;;;;;;;0.65;85.09;100679.50;110715;1215;138581;-67
2023/12/09 03:06:56;;;;;;;97.70;35.30;;;;;;;0.67;85.27;100675.27;110715;1212;112884;-67
2023/12/09 03:09:23;;;;;;;107.20;36.70;;;;;;;0.67;85.18;100674.74;110673;1215;140214;-67
2023/12/09 03:11:48;;;;;;;105.60;35.80;;;;;;;0.66;85.20;100678.44;110720;1218;97683;-67
2023/12/09 03:14:14;;;;;;;92.80;32.20;;;;;;;0.68;85.28;100674.39;110747;1215;97659;-67
2023/12/09 03:16:39;;;;;;;104.20;36.40;;;;;;;0.68;85.19;100669.11;110712;1209;140791;-67
2023/12/09 03:19:04;;;;;;;93.00;32.80;;;;;;;0.68;85.13;100668.94;110791;1223;97649;-67
2023/12/09 03:21:30;;;;;;;92.00;34.10;;;;;;;0.69;85.30;100667.88;110630;1212;138604;-67
2023/12/09 03:23:55;;;;;;;91.90;33.50;;;;;;;0.69;85.17;100669.46;110828;1228;96459;-67
2023/12/09 03:26:21;;;;;;;102.50;34.60;;;;;;;0.68;85.29;100671.92;110848;1212;97722;-67
2023/12/09 03:28:46;;;;;;;94.90;32.90;;;;;;;0.69;85.30;100676.50;110620;1209;138960;-67
2023/12/09 03:31:13;;;;;;;98.20;35.00;;;;;;;0.71;85.29;100674.21;110772;1209;98347;-67
2023/12/09 03:33:39;;;;;;;102.30;34.80;;;;;;;0.73;85.30;100667.70;110758;1209;139365;-67
2023/12/09 03:36:09;;;;;;;96.10;33.10;;;;;;;0.73;85.30;100672.27;110738;1209;99097;-67
2023/12/09 03:38:35;;;;;;;87.40;32.60;;;;;;;0.74;85.35;100672.62;110940;1209;108503;-67
2023/12/09 03:41:04;;;;;;;88.40;32.20;;;;;;;0.72;85.29;100670.16;110593;1212;139351;-67
2023/12/09 03:43:29;;;;;;;100.50;34.00;;;;;;;0.72;85.38;100666.64;110861;1209;98100;-67
2023/12/09 03:45:55;;;;;;;98.90;34.50;;;;;;;0.72;85.28;100663.30;110635;1215;139949;-67
2023/12/09 03:48:20;;;;;;;97.20;34.90;;;;;;;0.74;85.43;100663.47;110762;1212;97637;-67
2023/12/09 03:50:45;;;;;;;97.80;33.00;;;;;;;0.76;85.41;100664.52;110733;1212;97661;-68
2023/12/09 03:53:11;;;;;;;97.90;34.30;;;;;;;0.75;85.34;100662.23;110707;1212;139140;-67
2023/12/09 03:55:36;;;;;;;98.00;34.80;;;;;;;0.76;85.41;100662.05;110715;1209;97550;-67
2023/12/09 03:58:01;;;;;;;89.50;34.50;;;;;;;0.75;85.32;100662.59;110620;1212;139041;-67
2023/12/09 04:00:27;;;;;;;91.20;33.80;;;;;;;0.72;85.26;100661.72;110846;1212;97591;-67
2023/12/09 04:02:52;;;;;;;94.00;35.40;;;;;;;0.71;85.29;100661.71;110778;1212;97682;-67
2023/12/09 04:05:17;;;;;;;96.90;35.30;;;;;;;0.71;85.40;100669.64;110709;1210;142690;-67
2023/12/09 04:07:42;;;;;;;102.50;35.90;;;;;;;0.74;85.43;100666.98;110745;1215;96770;-67
2023/12/09 04:10:11;;;;;;;88.40;31.90;;;;;;;0.74;85.43;100662.94;110667;1212;139893;-67
2023/12/09 04:12:36;;;;;;;92.60;33.60;;;;;;;0.74;85.33;100660.13;110787;1212;99203;-68
2023/12/09 04:15:03;;;;;;;89.60;32.60;;;;;;;0.74;85.45;100661.02;110665;1209;97856;-67
2023/12/09 04:17:29;;;;;;;99.70;34.70;;;;;;;0.74;85.43;100661.19;110793;1212;138923;-67
2023/12/09 04:19:54;;;;;;;92.50;34.80;;;;;;;0.73;85.33;100664.00;110907;1212;114640;-67
2023/12/09 04:22:19;;;;;;;96.30;35.60;;;;;;;0.73;85.46;100666.98;110567;1209;139157;-67
2023/12/09 04:24:45;;;;;;;88.00;33.10;;;;;;;0.73;85.50;100668.23;110793;1212;97896;-67
2023/12/09 04:27:10;;;;;;;96.10;34.20;;;;;;;0.74;85.47;100672.80;110892;1210;97589;-67
2023/12/09 04:29:36;;;;;;;95.70;35.40;;;;;;;0.74;85.56;100669.27;110761;1213;138507;-68
2023/12/09 04:32:01;;;;;;;97.10;35.90;;;;;;;0.75;85.52;100672.09;110732;1212;97690;-68
2023/12/09 04:34:26;;;;;;;82.90;32.60;;;;;;;0.75;85.60;100673.32;110620;1224;139703;-68
2023/12/09 04:36:51;;;;;;;84.60;32.60;;;;;;;0.76;85.59;100674.38;110833;1212;97729;-68
2023/12/09 04:39:17;;;;;;;96.60;34.80;;;;;;;0.76;85.48;100672.44;110624;1209;139291;-67
2023/12/09 04:41:43;;;;;;;90.80;33.10;;;;;;;0.76;85.58;100666.10;110909;1209;98200;-68
2023/12/09 04:44:09;;;;;;;100.70;36.50;;;;;;;0.76;85.67;100667.33;110835;1212;97565;-67
2023/12/09 04:46:34;;;;;;;90.90;35.70;;;;;;;0.76;85.71;100669.45;110708;1212;140346;-67
2023/12/09 04:49:00;;;;;;;96.00;34.20;;;;;;;0.75;85.69;100669.10;110991;1209;97724;-68
2023/12/09 04:51:26;;;;;;;97.20;35.20;;;;;;;0.75;85.70;100672.44;110628;1208;139463;-68
2023/12/09 04:53:51;;;;;;;99.90;36.50;;;;;;;0.75;85.70;100667.52;110791;1212;98202;-68
2023/12/09 04:56:18;;;;;;;89.80;33.10;;;;;;;0.75;85.77;100665.92;110829;1208;97699;-68
2023/12/09 04:58:43;;;;;;;91.50;33.50;;;;;;;0.76;85.81;100665.05;110587;1212;138595;-68
2023/12/09 05:01:08;;;;;;;91.70;33.10;;;;;;;0.77;85.84;100668.56;110749;1209;97678;-67
2023/12/09 05:03:34;;;;;;;90.50;35.30;;;;;;;0.78;85.76;100666.97;110732;1231;138741;-68
2023/12/09 05:06:00;;;;;;;93.00;34.00;;;;;;;0.77;85.73;100666.10;110783;1212;97699;-67
2023/12/09 05:08:26;;;;;;;94.70;35.40;;;;;;;0.76;85.85;100663.81;110787;1212;97627;-67
2023/12/09 05:10:53;;;;;;;92.50;34.30;;;;;;;0.76;85.85;100663.11;110749;1212;138990;-68
2023/12/09 05:13:18;;;;;;;90.60;34.10;;;;;;;0.74;85.91;100661.02;110700;1209;112248;-68
2023/12/09 05:15:44;;;;;;;95.60;35.30;;;;;;;0.73;85.91;100659.42;110672;1216;138643;-68
2023/12/09 05:18:09;;;;;;;99.40;35.90;;;;;;;0.72;86.03;100660.66;110783;1209;98410;-68
2023/12/09 05:20:35;;;;;;;101.20;35.70;;;;;;;0.73;85.97;100660.66;110825;1209;97621;-67
2023/12/09 05:23:00;;;;;;;103.70;35.60;;;;;;;0.73;86.04;100661.19;110639;1220;139963;-67
2023/12/09 05:25:25;;;;;;;91.00;35.60;;;;;;;0.74;86.08;100665.41;110838;1209;96553;-67
2023/12/09 05:27:51;;;;;;;89.40;32.90;;;;;;;0.72;86.13;100660.31;110632;1212;138648;-68
2023/12/09 05:30:16;;;;;;;97.10;35.30;;;;;;;0.74;86.17;100663.83;110846;1209;97585;-67
2023/12/09 05:32:41;;;;;;;91.40;35.30;;;;;;;0.76;86.12;100667.52;110753;1212;97742;-68
2023/12/09 05:35:08;;;;;;;88.20;34.90;;;;;;;0.77;86.17;100666.80;110610;1212;138367;-67
2023/12/09 05:37:33;;;;;;;84.40;34.00;;;;;;;0.77;86.23;100665.92;110747;1212;97708;-67
2023/12/09 05:39:59;;;;;;;98.30;34.80;;;;;;;0.77;86.33;100667.34;110580;1210;139191;-68
2023/12/09 05:42:24;;;;;;;96.10;35.30;;;;;;;0.75;86.24;100671.20;110820;1223;97691;-68
2023/12/09 05:44:49;;;;;;;91.30;35.70;;;;;;;0.75;86.30;100665.05;110696;1212;98393;-68
2023/12/09 05:47:14;;;;;;;97.00;36.50;;;;;;;0.75;86.31;100667.16;110675;1209;139022;-68
2023/12/09 05:49:40;;;;;;;94.60;34.90;;;;;;;0.76;86.32;100670.33;110743;1212;96574;-68
2023/12/09 05:52:05;;;;;;;89.80;35.60;;;;;;;0.76;86.47;100669.97;110614;1212;140137;-68
2023/12/09 05:54:31;;;;;;;90.20;34.30;;;;;;;0.77;86.43;100672.08;110878;1210;98416;-68
2023/12/09 05:56:59;;;;;;;99.30;35.50;;;;;;;0.77;86.56;100671.20;110723;1212;97607;-68
2023/12/09 05:59:24;;;;;;;89.80;34.90;;;;;;;0.79;86.50;100672.42;110640;1212;139528;-68
2023/12/09 06:01:49;;;;;;;90.70;36.70;;;;;;;0.80;86.57;100670.13;110548;1212;99443;-68
2023/12/09 06:04:14;;;;;;;97.20;36.40;;;;;;;0.81;86.54;100668.20;110642;1209;138512;-68
2023/12/09 06:06:40;;;;;;;95.80;37.10;;;;;;;0.82;86.60;100669.60;110772;1211;97798;-68
2023/12/09 06:09:05;;;;;;;103.70;36.50;;;;;;;0.83;86.56;100668.19;110694;1209;98425;-68
2023/12/09 06:11:31;;;;;;;89.60;36.70;;;;;;;0.85;86.76;100664.32;110631;1212;140142;-68
2023/12/09 06:13:56;;;;;;;82.10;33.50;;;;;;;0.86;86.83;100667.66;110797;1209;97752;-68
2023/12/09 06:16:22;;;;;;;87.50;33.80;;;;;;;0.84;86.74;100668.36;110589;1225;139166;-68
2023/12/09 06:18:49;;;;;;;94.80;35.20;;;;;;;0.83;86.79;100667.66;110720;1209;98163;-68
2023/12/09 06:21:19;;;;;;;90.70;36.20;;;;;;;0.84;86.79;100667.14;110752;1212;97683;-68
2023/12/09 06:23:44;;;;;;;92.90;36.10;;;;;;;0.85;86.92;100666.08;110774;1210;97818;-68
2023/12/09 06:26:10;;;;;;;85.20;33.60;;;;;;;0.87;86.86;100665.01;110786;1225;97770;-68
2023/12/09 06:28:37;;;;;;;93.00;36.20;;;;;;;0.88;86.87;100665.71;110706;1209;139990;-68
2023/12/09 06:31:02;;;;;;;92.10;36.30;;;;;;;0.89;86.95;100671.16;110691;1212;97702;-68
2023/12/09 06:33:28;;;;;;;85.30;31.80;;;;;;;0.89;86.93;100667.45;110615;1212;140111;-68
2023/12/09 06:35:53;;;;;;;84.50;33.70;;;;;;;0.89;86.93;100665.70;110830;1210;98487;-68
2023/12/09 06:38:18;;;;;;;80.50;34.40;;;;;;;0.90;87.03;100666.93;110686;1212;98730;-68
2023/12/09 06:40:43;;;;;;;89.60;35.20;;;;;;;0.89;86.99;100666.76;110653;1212;139076;-68
2023/12/09 06:43:09;;;;;;;85.30;34.80;;;;;;;0.91;87.12;100670.98;110752;1225;97684;-68
2023/12/09 06:45:34;;;;;;;83.00;33.80;;;;;;;0.91;87.08;100670.98;110670;1212;138917;-68
2023/12/09 06:47:59;;;;;;;83.20;35.00;;;;;;;0.92;87.00;100673.44;110769;1209;97672;-68
2023/12/09 06:50:25;;;;;;;84.80;34.10;;;;;;;0.93;87.07;100667.80;110811;1212;97741;-68
2023/12/09 06:52:50;;;;;;;86.40;36.00;;;;;;;0.96;87.23;100662.52;110770;1210;140636;-68
2023/12/09 06:55:16;;;;;;;91.60;34.90;;;;;;;0.96;87.23;100658.82;110726;1221;97675;-69
2023/12/09 06:57:41;;;;;;;84.40;35.00;;;;;;;0.97;87.33;100657.05;110671;1209;139006;-67
2023/12/09 07:00:08;;;;;;;91.30;34.60;;;;;;;0.97;87.24;100657.92;110790;1221;97289;-68
2023/12/09 07:02:33;;;;;;;85.20;32.50;;;;;;;0.98;87.22;100661.45;110752;1214;100225;-68
2023/12/09 07:04:59;;;;;;;93.50;36.30;;;;;;;0.98;87.18;100661.09;110583;1209;138992;-68
2023/12/09 07:07:24;;;;;;;85.20;34.60;;;;;;;0.97;87.30;100659.69;110869;1209;96500;-68
2023/12/09 07:09:50;;;;;;;89.30;35.10;;;;;;;0.95;87.32;100651.26;110697;1212;140783;-68
2023/12/09 07:12:15;;;;;;;84.30;33.60;;;;;;;0.98;87.44;100651.95;110778;1221;97830;-68
2023/12/09 07:14:42;;;;;;;89.00;35.40;;;;;;;0.99;87.47;100652.83;110631;1210;97656;-68
2023/12/09 07:17:07;;;;;;;77.10;32.80;;;;;;;0.99;87.48;100651.77;110566;1223;140487;-68
2023/12/09 07:19:32;;;;;;;87.40;35.20;;;;;;;1.00;87.58;100654.05;110748;1212;98251;-68
2023/12/09 07:21:57;;;;;;;85.10;34.60;;;;;;;1.02;87.53;100648.58;110447;1212;139106;-69
2023/12/09 07:24:23;;;;;;;82.10;33.40;;;;;;;1.05;87.61;100648.40;110636;1212;100570;-68
2023/12/09 07:26:48;;;;;;;84.30;36.00;;;;;;;1.08;87.68;100651.02;110740;1209;97832;-68
2023/12/09 07:29:13;;;;;;;86.90;35.60;;;;;;;1.09;87.65;100646.62;110543;1221;140648;-68
2023/12/09 07:31:39;;;;;;;87.00;35.10;;;;;;;1.10;87.61;100646.79;110702;1212;98378;-67
2023/12/09 07:34:04;;;;;;;80.70;33.80;;;;;;;1.12;87.76;100647.66;110498;1209;139063;-68
2023/12/09 07:36:29;;;;;;;85.40;36.30;;;;;;;1.16;87.82;100647.11;110635;1212;97667;-68
2023/12/09 07:38:55;;;;;;;79.20;34.50;;;;;;;1.17;87.75;100643.23;110636;1212;97603;-68
2023/12/09 07:41:20;;;;;;;81.10;33.50;;;;;;;1.18;87.73;100643.59;110527;1212;138511;-67
2023/12/09 07:43:45;;;;;;;81.50;34.10;;;;;;;1.18;87.79;100641.30;110781;1212;99191;-68
2023/12/09 07:46:10;;;;;;;90.50;36.00;;;;;;;1.19;87.81;100641.46;110444;1209;140111;-68
2023/12/09 07:48:36;;;;;;;104.50;43.30;;;;;;;1.21;87.81;100641.45;110652;1212;97693;-68
2023/12/09 07:51:01;;;;;;;86.70;39.80;;;;;;;1.23;87.93;100639.51;110635;1212;98501;-68
2023/12/09 07:53:26;;;;;;;101.70;39.60;;;;;;;1.25;87.83;100640.73;110588;1209;138546;-68
2023/12/09 07:55:52;;;;;;;84.00;36.40;;;;;;;1.26;88.02;100637.38;110674;1212;97764;-69
2023/12/09 07:58:17;;;;;;;89.30;38.70;;;;;;;1.28;88.12;100638.43;110453;1208;138861;-68
2023/12/09 08:00:43;;;;;;;86.20;39.40;;;;;;;1.28;88.01;100635.43;110575;1224;97718;-68
2023/12/09 08:03:08;;;;;;;88.70;39.30;;;;;;;1.28;88.04;100636.31;110533;1212;101166;-68
2023/12/09 08:05:38;;;;;;;90.00;38.80;;;;;;;1.29;88.19;100640.17;110393;1212;140349;-67
2023/12/09 08:08:05;;;;;;;84.80;37.80;;;;;;;1.30;87.88;100642.98;112852;1208;95534;-68
2023/12/09 08:10:30;;;;;;;82.40;34.80;;;;;;;1.32;88.16;100638.92;111932;1207;139101;-68
2023/12/09 08:12:56;;;;;;;77.00;33.90;;;;;;;1.33;88.14;100638.39;110589;1210;98095;-68
2023/12/09 08:15:21;;;;;;;76.00;33.30;;;;;;;1.37;88.21;100633.80;110458;1218;107847;-68
2023/12/09 08:17:46;;;;;;;73.50;32.40;;;;;;;1.39;88.26;100627.80;110407;1225;97892;-67
2023/12/09 08:20:13;;;;;;;75.60;32.00;;;;;;;1.39;88.16;100623.92;110577;1212;97769;-67
2023/12/09 08:22:40;;;;;;;73.80;32.30;;;;;;;1.41;88.30;100627.44;110424;1212;138552;-68
2023/12/09 08:25:07;;;;;;;82.50;36.30;;;;;;;1.42;88.17;100629.54;110587;1209;97737;-68
2023/12/09 08:27:32;;;;;;;123.50;44.60;;;;;;;1.45;88.29;100626.53;110591;1212;138948;-67
2023/12/09 08:29:58;;;;;;;109.70;43.20;;;;;;;1.47;88.55;100625.45;110885;1209;99274;-67
2023/12/09 08:32:23;;;;;;;98.50;39.80;;;;;;;1.46;88.40;100628.63;110516;1212;98666;-67
2023/12/09 08:34:49;;;;;;;121.70;45.30;;;;;;;1.49;88.50;100626.67;110413;1212;138424;-67
2023/12/09 08:37:15;;;;;;;96.40;39.20;;;;;;;1.51;88.42;100628.06;110494;1209;97704;-69
2023/12/09 08:39:41;;;;;;;88.70;35.90;;;;;;;1.50;88.45;100621.39;110361;1211;139164;-67
2023/12/09 08:42:06;;;;;;;79.30;32.20;;;;;;;1.50;88.59;100622.61;110482;1210;97603;-68
2023/12/09 08:44:31;;;;;;;75.20;32.10;;;;;;;1.52;88.51;100622.25;110641;1213;97679;-66
2023/12/09 08:46:57;;;;;;;73.60;31.50;;;;;;;1.53;88.58;100618.90;110525;1208;138738;-69
2023/12/09 08:49:23;;;;;;;71.80;28.40;;;;;;;1.54;88.62;100625.05;110607;1212;97611;-70
2023/12/09 08:51:48;;;;;;;76.40;30.50;;;;;;;1.57;88.62;100625.91;110698;1212;139259;-68
2023/12/09 08:54:14;;;;;;;72.70;28.40;;;;;;;1.59;88.60;100625.38;110631;1210;97722;-69
2023/12/09 08:56:40;;;;;;;65.60;27.10;;;;;;;1.58;88.72;100627.14;110775;1212;97676;-69
2023/12/09 08:59:07;;;;;;;64.70;27.30;;;;;;;1.61;88.64;100628.00;110624;1210;138550;-69
2023/12/09 09:01:34;;;;;;;68.10;28.80;;;;;;;1.62;88.82;100627.64;110711;1212;106974;-70
2023/12/09 09:04:01;;;;;;;70.50;29.00;;;;;;;1.63;88.66;100633.27;110665;1209;140832;-68
2023/12/09 09:06:27;;;;;;;68.00;27.10;;;;;;;1.62;88.75;100628.34;110883;1209;97812;-67
2023/12/09 09:08:53;;;;;;;69.50;29.20;;;;;;;1.62;88.76;100626.58;110975;1228;97986;-67
2023/12/09 09:11:20;;;;;;;73.20;28.90;;;;;;;1.62;88.81;100632.92;110628;1212;139782;-68
2023/12/09 09:13:45;;;;;;;78.60;29.70;;;;;;;1.65;88.79;100623.38;110745;1212;97673;-69
2023/12/09 09:16:11;;;;;;;77.20;30.60;;;;;;;1.67;88.74;100621.62;110619;1209;139316;-68
2023/12/09 09:18:36;;;;;;;85.40;32.60;;;;;;;1.66;88.83;100619.50;110859;1208;98179;-69
2023/12/09 09:21:01;;;;;;;84.80;34.70;;;;;;;1.68;88.86;100618.09;110749;1212;98891;-69
2023/12/09 09:23:27;;;;;;;74.90;32.50;;;;;;;1.67;88.85;100617.20;110755;1208;138428;-70
2023/12/09 09:25:52;;;;;;;88.50;32.80;;;;;;;1.67;88.98;100616.15;110783;1212;97750;-69
2023/12/09 09:28:17;;;;;;;81.70;33.60;;;;;;;1.70;88.95;100612.79;110487;1211;138899;-70
2023/12/09 09:30:43;;;;;;;89.20;33.60;;;;;;;1.70;88.95;100613.84;110631;1208;97609;-70
2023/12/09 09:33:09;;;;;;;80.90;32.50;;;;;;;1.71;89.00;100611.02;110698;1212;97700;-70
2023/12/09 09:35:34;;;;;;;82.50;32.60;;;;;;;1.71;88.95;100606.25;110773;1208;139498;-69
2023/12/09 09:38:00;;;;;;;86.80;34.20;;;;;;;1.75;89.08;100604.48;110672;1223;97675;-69
2023/12/09 09:40:25;;;;;;;87.30;32.90;;;;;;;1.76;89.07;100599.35;110715;1209;138592;-69
2023/12/09 09:42:56;;;;;;;89.30;33.10;;;;;;;1.75;89.09;100595.13;110831;1212;98674;-70
2023/12/09 09:45:23;;;;;;;;;;;;;;;1.76;89.03;100590.54;110772;1212;138957;-69
2023/12/09 09:47:50;;;;;;;81.70;30.60;;;;;;;1.75;89.22;100590.19;110798;1209;96506;-70
2023/12/09 09:50:22;;;;;;;86.10;33.10;;;;;;;1.78;89.17;100586.83;110727;1212;97705;-69
2023/12/09 09:52:48;;;;;;;85.80;30.80;;;;;;;1.81;89.15;100584.86;110683;1212;139644;-69
2023/12/09 09:55:15;;;;;;;83.80;34.20;;;;;;;1.82;89.18;100588.38;110806;1214;99751;-70
2023/12/09 09:57:42;;;;;;;82.50;33.20;;;;;;;1.82;89.20;100585.73;110755;1212;138648;-69
2023/12/09 10:00:13;;;;;;;96.10;35.20;;;;;;;1.83;89.22;100579.56;110858;1210;96581;-70
2023/12/09 10:02:43;;;;;;;105.90;36.90;;;;;;;1.85;89.31;100568.79;110825;1212;97926;-70
2023/12/09 10:05:10;;;;;;;83.70;34.20;;;;;;;1.86;89.28;100564.55;110703;1213;139375;-70
2023/12/09 10:07:39;;;;;;;96.70;34.70;;;;;;;1.86;89.24;100558.92;110879;1208;96152;-69
2023/12/09 10:10:08;;;;;;;103.10;36.80;;;;;;;1.86;89.39;100552.22;110687;1209;140766;-70
2023/12/09 10:12:35;;;;;;;105.60;39.10;;;;;;;1.88;89.22;100550.61;110861;1212;107406;-69
2023/12/09 10:15:01;;;;;;;106.70;40.30;;;;;;;1.88;89.21;100544.45;110769;1212;97694;-70
2023/12/09 10:17:31;;;;;;;104.10;39.80;;;;;;;1.91;89.36;100541.60;111018;1208;139731;-70
2023/12/09 10:19:59;;;;;;;94.40;39.10;;;;;;;1.93;89.42;100540.00;110791;1209;112617;-70
2023/12/09 10:22:26;;;;;;;94.60;39.30;;;;;;;1.95;89.31;100533.63;110756;1208;139203;-70
2023/12/09 10:24:52;;;;;;;93.60;39.20;;;;;;;1.97;89.46;100530.98;110867;1212;97678;-69
2023/12/09 10:27:22;;;;;;;92.20;38.30;;;;;;;1.99;89.28;100530.95;110766;1207;97607;-69
2023/12/09 10:29:52;;;;;;;91.40;38.40;;;;;;;2.01;89.54;100531.28;110835;1212;97643;-70
2023/12/09 10:32:21;;;;;;;84.40;37.30;;;;;;;2.04;89.64;100529.14;110915;1207;110577;-69
2023/12/09 10:34:50;;;;;;;87.70;37.00;;;;;;;2.08;89.49;100526.27;110895;1207;138715;-70
2023/12/09 10:37:16;;;;;;;90.60;36.00;;;;;;;2.10;89.63;100530.83;110916;1212;107873;-70
2023/12/09 10:39:43;;;;;;;96.50;36.50;;;;;;;2.12;89.63;100527.29;110691;1210;142432;-69
2023/12/09 10:42:12;;;;;;;91.20;35.80;;;;;;;2.15;89.69;100525.84;110857;1212;97678;-69
2023/12/09 10:44:38;;;;;;;80.50;36.40;;;;;;;2.17;89.63;100520.35;110790;1209;112072;-70
2023/12/09 10:47:04;;;;;;;74.40;33.00;;;;;;;2.18;89.63;100520.16;110694;1209;139457;-69
2023/12/09 10:49:30;;;;;;;79.80;34.40;;;;;;;2.17;89.67;100518.41;110847;1212;97758;-70
2023/12/09 10:51:56;;;;;;;91.60;34.10;;;;;;;2.17;89.69;100519.30;110787;1212;138686;-69
2023/12/09 10:54:21;;;;;;;79.90;32.20;;;;;;;2.17;89.67;100513.47;110767;1213;97552;-70
2023/12/09 10:56:47;;;;;;;82.20;32.70;;;;;;;2.19;89.60;100508.87;110863;1212;97655;-70
2023/12/09 10:59:13;;;;;;;82.00;31.30;;;;;;;2.20;89.80;100507.27;110613;1212;138947;-70